Time;durP1;ratioP1;P1;durP2;ratioP2;P2;SDS_P1;SDS_P2;PMS_P1;PMS_P2;Temp;Humidity;BMP_temperature;BMP_pressure;BME280_temperature;BME280_humidity;BME280_pressure;Samples;Min_cycle;Max_cycle;Signal;HPM_P1;HPM_P2
2022/05/16 00:01:49;;;;;;;6.78;3.20;;;;;;;24.23;37.48;101298.66;4985301;28;20046;-83
2022/05/16 00:04:16;;;;;;;6.93;3.28;;;;;;;24.29;37.11;101305.94;4985347;28;20101;-81
2022/05/16 00:06:42;;;;;;;5.07;3.17;;;;;;;24.69;36.80;101365.63;4985371;28;20483;-82
2022/05/16 00:09:09;;;;;;;6.28;3.70;;;;;;;24.58;37.21;101352.69;4984722;28;20061;-83
2022/05/16 00:11:36;;;;;;;3.92;2.70;;;;;;;24.46;36.99;101336.22;4985214;28;20105;-83
2022/05/16 00:14:03;;;;;;;5.95;2.97;;;;;;;24.62;36.63;101356.66;4984985;28;20267;-82
2022/05/16 00:16:31;;;;;;;7.25;3.50;;;;;;;24.61;36.74;101360.41;4984867;28;20047;-82
2022/05/16 00:19:02;;;;;;;8.63;3.00;;;;;;;24.18;36.71;101283.00;4984983;28;20496;-81
2022/05/16 00:21:28;;;;;;;4.45;2.72;;;;;;;24.63;36.64;101361.03;4986160;28;20508;-82
2022/05/16 00:23:55;;;;;;;5.50;3.03;;;;;;;24.68;36.71;101363.94;4986054;28;20133;-83
2022/05/16 00:26:22;;;;;;;13.20;3.83;;;;;;;24.15;36.90;101282.56;4984805;28;20128;-82
2022/05/16 00:28:48;;;;;;;4.60;2.70;;;;;;;24.39;36.64;101316.34;4985193;28;20086;-82
2022/05/16 00:31:15;;;;;;;6.47;3.08;;;;;;;24.58;36.34;101347.25;4985348;28;20089;-83
2022/05/16 00:33:41;;;;;;;6.32;3.30;;;;;;;24.57;36.54;101351.88;4984924;28;20053;-82
2022/05/16 00:36:08;;;;;;;5.40;3.00;;;;;;;24.61;36.42;101365.84;4985127;28;20089;-82
2022/05/16 00:38:35;;;;;;;5.35;2.58;;;;;;;24.45;36.41;101334.53;4985226;28;20544;-82
2022/05/16 00:41:04;;;;;;;8.15;2.63;;;;;;;24.52;36.68;101355.22;4984840;28;20050;-82
2022/05/16 00:43:44;;;;;;;5.72;2.78;;;;;;;24.54;35.76;101341.44;4986064;28;20512;-82
2022/05/16 00:46:15;;;;;;;6.17;2.70;;;;;;;24.49;36.54;101350.22;4984911;28;20412;-82
2022/05/16 00:48:42;;;;;;;5.28;3.15;;;;;;;24.52;36.24;101367.94;4984801;28;20117;-82
2022/05/16 00:51:14;;;;;;;8.57;3.55;;;;;;;24.04;36.58;101281.31;4985709;28;20046;-82
2022/05/16 00:53:43;;;;;;;9.88;3.63;;;;;;;24.01;36.96;101298.03;4985189;28;20689;-82
2022/05/16 00:56:10;;;;;;;7.30;3.00;;;;;;;24.21;36.48;101330.56;4985044;28;20058;-82
2022/05/16 00:58:40;;;;;;;6.13;2.60;;;;;;;24.29;36.78;101349.34;4989712;28;20145;-82
2022/05/16 01:04:47;;;;;;;5.70;2.75;;;;;;;23.89;36.52;101276.94;4988616;28;20050;-82
2022/05/16 01:06:42;;;;;;;5.00;3.13;;;;;;;24.04;36.70;101312.00;5009157;28;20081;-83
2022/05/16 01:09:11;;;;;;;5.90;2.70;;;;;;;24.19;36.49;101338.06;4991744;28;20062;-83
2022/05/16 01:11:39;;;;;;;4.90;2.90;;;;;;;24.29;36.47;101352.06;5008865;28;20045;-82
2022/05/16 01:14:05;;;;;;;5.60;3.00;;;;;;;24.20;36.90;101351.44;5008862;28;20039;-82
2022/05/16 01:16:33;;;;;;;6.03;3.38;;;;;;;24.22;36.58;101356.63;4991170;28;20472;-83
2022/05/16 01:19:00;;;;;;;5.63;2.80;;;;;;;24.17;36.95;101351.00;4991416;28;20046;-81
2022/05/16 01:21:39;;;;;;;6.18;3.80;;;;;;;24.20;36.62;101350.59;4991380;28;20593;-81
2022/05/16 01:24:07;;;;;;;5.93;3.08;;;;;;;24.13;36.67;101353.31;4991298;28;20492;-81
2022/05/16 01:26:35;;;;;;;4.43;2.88;;;;;;;24.00;36.46;101343.28;4991431;28;20054;-81
2022/05/16 01:29:03;;;;;;;9.90;3.47;;;;;;;23.99;36.50;101338.06;4991125;28;20472;-81
2022/05/16 01:31:34;;;;;;;4.90;3.28;;;;;;;23.83;36.36;101307.59;4991576;28;20519;-81
2022/05/16 01:34:01;;;;;;;5.30;3.33;;;;;;;23.66;36.54;101274.59;4991121;28;20104;-81
2022/05/16 01:36:28;;;;;;;6.15;3.00;;;;;;;23.87;36.38;101318.88;5008744;28;20097;-81
2022/05/16 01:38:57;;;;;;;8.15;3.17;;;;;;;23.70;36.40;101298.59;4990929;28;20081;-83
2022/05/16 01:41:25;;;;;;;8.00;2.70;;;;;;;23.74;36.22;101308.00;4991263;28;20152;-82
2022/05/16 01:43:55;;;;;;;7.00;3.35;;;;;;;24.04;36.05;101358.09;4990923;28;20335;-82
2022/05/16 01:46:29;;;;;;;7.55;2.90;;;;;;;23.84;36.18;101322.00;4991176;28;20077;-82
2022/05/16 01:48:56;;;;;;;11.27;3.35;;;;;;;23.97;35.67;101345.56;4990946;28;20061;-83
2022/05/16 01:51:24;;;;;;;3.10;2.80;;;;;;;23.34;36.18;101253.69;4991179;28;20054;-83
2022/05/16 01:53:51;;;;;;;7.10;2.63;;;;;;;23.85;35.79;101320.94;5008386;28;20050;-83
2022/05/16 01:56:18;;;;;;;5.22;3.03;;;;;;;23.98;36.07;101352.66;4990614;28;20088;-82
2022/05/16 01:58:45;;;;;;;7.18;3.10;;;;;;;23.89;36.25;101338.47;4990531;28;20143;-83
2022/05/16 02:01:13;;;;;;;4.75;2.55;;;;;;;23.96;35.87;101346.59;5008118;28;20104;-83
2022/05/16 02:03:42;;;;;;;4.38;2.80;;;;;;;23.97;35.89;101345.56;5007840;28;20148;-82
2022/05/16 02:06:08;;;;;;;9.25;3.45;;;;;;;23.89;35.93;101346.63;4990587;28;20140;-82
2022/05/16 02:08:35;;;;;;;4.20;2.90;;;;;;;23.77;36.22;101332.00;5007892;28;20060;-83
2022/05/16 02:11:04;;;;;;;3.53;2.58;;;;;;;23.71;36.40;101335.47;4990539;28;20041;-82
2022/05/16 02:13:32;;;;;;;6.85;2.97;;;;;;;22.82;36.12;101202.69;4990714;28;20108;-83
2022/05/16 02:15:59;;;;;;;6.03;3.03;;;;;;;23.80;35.87;101345.13;4990509;28;20081;-82
2022/05/16 02:18:26;;;;;;;9.43;2.97;;;;;;;23.80;35.89;101339.72;5008140;28;20046;-82
2022/05/16 02:24:38;;;;;;;7.50;2.95;;;;;;;23.85;35.52;101351.59;4990771;28;20050;-83
2022/05/16 02:26:29;;;;;;;4.18;2.85;;;;;;;23.59;35.90;101321.69;5007982;28;20100;-82
2022/05/16 02:28:55;;;;;;;6.25;2.67;;;;;;;23.74;35.65;101351.34;5008638;28;20073;-83
2022/05/16 02:31:22;;;;;;;5.55;3.28;;;;;;;23.68;35.68;101332.13;4990532;28;20252;-82
2022/05/16 02:33:49;;;;;;;4.57;2.42;;;;;;;23.77;35.02;101332.00;4990338;28;20046;-82
2022/05/16 02:36:16;;;;;;;6.70;2.83;;;;;;;23.65;35.32;101321.72;4990453;28;20064;-83
2022/05/16 02:38:44;;;;;;;7.70;3.13;;;;;;;23.31;35.27;101262.25;4990228;28;20053;-83
2022/05/16 02:41:10;;;;;;;4.15;3.08;;;;;;;23.61;34.94;101303.34;5007823;28;20137;-82
2022/05/16 02:43:37;;;;;;;3.97;2.70;;;;;;;23.50;34.99;101293.97;5007619;28;20053;-82
2022/05/16 02:46:04;;;;;;;5.22;2.53;;;;;;;23.56;35.12;101305.84;5007741;28;20120;-82
2022/05/16 02:48:31;;;;;;;7.97;3.28;;;;;;;23.49;35.33;101299.59;4990489;28;20088;-83
2022/05/16 02:50:57;;;;;;;5.70;3.22;;;;;;;23.68;35.56;101336.72;4990192;28;20594;-82
2022/05/16 02:53:24;;;;;;;8.77;2.75;;;;;;;23.67;35.31;101318.81;5007723;28;20476;-82
2022/05/16 02:55:50;;;;;;;3.70;2.55;;;;;;;23.68;35.08;101332.13;4989657;28;20050;-82
2022/05/16 02:58:17;;;;;;;5.25;2.83;;;;;;;23.52;35.08;101302.72;5007250;28;20682;-81
2022/05/16 03:00:44;;;;;;;3.83;2.42;;;;;;;23.51;35.06;101313.75;4989439;28;20050;-81
2022/05/16 03:03:10;;;;;;;4.55;2.90;;;;;;;23.52;35.29;101315.44;4988901;28;20046;-82
2022/05/16 03:05:37;;;;;;;4.25;2.92;;;;;;;23.41;35.74;101298.72;5006828;28;20046;-81
2022/05/16 03:08:04;;;;;;;6.20;2.70;;;;;;;23.19;35.47;101268.25;4989564;28;20412;-81
2022/05/16 03:10:31;;;;;;;4.30;3.25;;;;;;;23.24;35.60;101282.00;5006940;28;20045;-82
2022/05/16 03:12:58;;;;;;;5.20;2.85;;;;;;;23.35;34.87;101301.41;4989760;28;20053;-82
2022/05/16 03:15:24;;;;;;;4.07;2.78;;;;;;;23.33;35.27;101298.09;5006997;28;20055;-82
2022/05/16 03:17:51;;;;;;;7.82;3.47;;;;;;;23.30;35.10;101291.19;5006851;28;20069;-82
2022/05/16 03:20:19;;;;;;;8.13;3.08;;;;;;;23.61;35.24;101336.72;4988503;28;20499;-81
2022/05/16 03:22:46;;;;;;;7.03;2.88;;;;;;;23.49;35.28;101332.94;5006675;28;20046;-82
2022/05/16 03:25:13;;;;;;;7.20;2.67;;;;;;;23.51;35.54;101341.69;5007105;28;20527;-83
2022/05/16 03:27:40;;;;;;;4.72;3.10;;;;;;;23.55;35.38;101353.81;4989836;28;20069;-82
2022/05/16 03:30:09;;;;;;;5.93;2.47;;;;;;;23.57;35.58;101346.31;4990280;28;20054;-83
2022/05/16 03:32:36;;;;;;;4.82;2.65;;;;;;;23.45;35.16;101321.69;4990252;28;20077;-82
2022/05/16 03:35:03;;;;;;;6.60;3.13;;;;;;;23.42;35.62;101327.50;4989150;28;20054;-82
2022/05/16 03:37:30;;;;;;;6.07;3.05;;;;;;;23.35;36.03;101331.22;5006551;28;20080;-82
2022/05/16 03:42:42;;;;;;;6.72;2.90;;;;;;;23.38;36.34;101347.09;5006291;28;20532;-82
2022/05/16 03:45:10;;;;;;;4.25;2.65;;;;;;;23.39;36.29;101344.16;4989115;28;20077;-82
2022/05/16 03:47:37;;;;;;;6.25;2.83;;;;;;;23.37;36.77;101354.34;4989006;28;20111;-82
2022/05/16 03:50:05;;;;;;;7.72;2.80;;;;;;;23.38;35.90;101347.09;4988712;28;20546;-82
2022/05/16 03:52:33;;;;;;;4.40;2.60;;;;;;;22.91;36.23;101275.59;5005975;28;20543;-82
2022/05/16 03:54:59;;;;;;;6.78;2.33;;;;;;;22.98;36.56;101298.97;5005933;28;20053;-82
2022/05/16 03:57:26;;;;;;;4.07;2.40;;;;;;;22.15;36.70;101173.63;4988623;28;20042;-82
2022/05/16 03:59:53;;;;;;;9.65;2.55;;;;;;;23.13;37.00;101344.91;4988794;28;20100;-82
2022/05/16 04:02:20;;;;;;;7.47;2.70;;;;;;;23.14;36.89;101340.31;4988424;28;20054;-82
2022/05/16 04:04:46;;;;;;;4.63;3.15;;;;;;;23.27;36.50;101337.66;5005738;28;20080;-82
2022/05/16 04:07:14;;;;;;;8.65;3.17;;;;;;;23.15;36.60;101340.09;5006023;28;20058;-83
2022/05/16 04:09:40;;;;;;;8.75;3.17;;;;;;;23.22;36.54;101349.09;5005891;28;20082;-82
2022/05/16 04:12:07;;;;;;;6.30;2.83;;;;;;;23.20;36.44;101348.44;5006162;28;20120;-82
2022/05/16 04:14:34;;;;;;;4.88;3.10;;;;;;;23.34;37.06;101381.03;5005804;28;20050;-82
2022/05/16 04:17:01;;;;;;;7.35;2.70;;;;;;;23.27;37.17;101377.44;4988412;28;20054;-82
2022/05/16 04:19:28;;;;;;;4.80;2.65;;;;;;;23.06;37.45;101345.88;4988462;28;20133;-82
2022/05/16 04:21:54;;;;;;;3.10;2.40;;;;;;;23.21;37.69;101385.34;4988542;28;20108;-82
2022/05/16 04:24:21;;;;;;;5.45;2.95;;;;;;;23.13;37.78;101374.69;4988660;28;20049;-82
2022/05/16 04:26:47;;;;;;;4.65;2.70;;;;;;;22.96;37.71;101359.75;4988530;28;20046;-82
2022/05/16 04:29:14;;;;;;;4.82;2.78;;;;;;;22.79;38.48;101343.84;5006120;28;20088;-82
2022/05/16 04:31:41;;;;;;;4.32;2.47;;;;;;;23.04;38.44;101386.72;4989879;28;20172;-82
2022/05/16 04:34:09;;;;;;;5.40;2.72;;;;;;;22.96;38.58;101392.25;4992425;28;20477;-82
2022/05/16 04:36:39;;;;;;;8.52;2.67;;;;;;;22.84;38.29;101359.47;4992529;28;20054;-82
2022/05/16 04:39:06;;;;;;;4.80;3.40;;;;;;;23.02;38.88;101391.50;4992874;28;20229;-83
2022/05/16 04:44:18;;;;;;;6.40;3.45;;;;;;;23.02;38.97;101396.91;5008825;28;20534;-83
2022/05/16 04:46:44;;;;;;;6.40;2.95;;;;;;;23.10;39.49;101409.44;4990662;28;20151;-82
2022/05/16 04:49:11;;;;;;;5.15;2.80;;;;;;;23.12;39.36;101407.38;5008266;28;20062;-82
2022/05/16 04:51:39;;;;;;;4.82;2.90;;;;;;;23.06;39.71;101405.47;4978102;28;20058;-82
2022/05/16 04:54:07;;;;;;;8.32;2.90;;;;;;;23.16;39.38;101403.25;5007349;28;20045;-82
2022/05/16 04:56:34;;;;;;;5.25;3.58;;;;;;;23.17;39.48;101421.16;4990021;28;20393;-82
2022/05/16 04:59:01;;;;;;;3.20;2.88;;;;;;;23.07;40.17;101407.16;4990018;28;20142;-82
2022/05/16 05:01:28;;;;;;;7.03;3.20;;;;;;;23.10;40.78;101414.88;4989900;28;20192;-82
2022/05/16 05:03:54;;;;;;;6.75;3.58;;;;;;;23.05;40.81;101401.91;4997514;28;20504;-82
2022/05/16 05:06:21;;;;;;;4.85;3.05;;;;;;;23.00;40.47;101398.97;4970809;28;20054;-82
2022/05/16 05:08:48;;;;;;;3.55;3.00;;;;;;;;;;4970423;28;20050;-82
2022/05/16 05:16:44;;;;;;;7.72;2.95;;;;;;;23.28;40.21;101427.88;4987900;28;20077;-82
2022/05/16 05:19:11;;;;;;;8.93;3.97;;;;;;;23.29;40.77;101429.56;4987120;28;20400;-82
2022/05/16 05:21:38;;;;;;;10.82;3.65;;;;;;;23.31;41.54;101435.63;4969870;28;20053;-82
2022/05/16 05:24:05;;;;;;;5.65;3.10;;;;;;;23.34;41.62;101432.50;4970160;28;20329;-81
2022/05/16 05:26:31;;;;;;;7.50;3.70;;;;;;;23.30;42.35;101420.38;4969833;28;20207;-80
2022/05/16 05:28:58;;;;;;;3.22;2.92;;;;;;;23.44;41.99;101433.78;4969592;28;20352;-82
2022/05/16 05:31:25;;;;;;;9.05;3.47;;;;;;;23.26;42.11;101406.41;4970136;28;20150;-82
2022/05/16 05:33:53;;;;;;;8.60;3.50;;;;;;;23.37;41.75;101422.09;4969896;28;20279;-82
2022/05/16 05:36:20;;;;;;;8.05;3.33;;;;;;;23.00;41.74;101355.66;4969885;28;20486;-83
2022/05/16 05:38:51;;;;;;;7.45;3.53;;;;;;;23.20;41.83;101372.81;4969978;28;20092;-82
2022/05/16 05:41:21;;;;;;;5.72;3.47;;;;;;;23.75;42.15;101456.91;4970425;28;20141;-81
2022/05/16 05:43:48;;;;;;;4.93;3.20;;;;;;;23.82;41.41;101448.78;4969724;28;20058;-81
2022/05/16 05:46:16;;;;;;;7.90;3.83;;;;;;;23.89;41.20;101434.22;4971761;28;20112;-82
2022/05/16 05:48:43;;;;;;;6.20;3.47;;;;;;;23.86;41.56;101422.91;4972345;28;20105;-82
2022/05/16 05:51:11;;;;;;;8.23;3.63;;;;;;;24.13;41.44;101431.13;4970281;28;20061;-82
2022/05/16 05:53:41;;;;;;;7.75;3.70;;;;;;;24.28;41.22;101461.63;4986361;28;20049;-82
2022/05/16 05:56:09;;;;;;;5.65;4.15;;;;;;;23.02;41.03;101240.69;5007746;28;20057;-82
2022/05/16 05:58:37;;;;;;;6.95;3.80;;;;;;;24.24;41.75;101436.78;4984607;28;20440;-81
2022/05/16 06:01:06;;;;;;;6.50;3.75;;;;;;;24.41;41.70;101437.22;4970835;28;20100;-82
2022/05/16 06:03:33;;;;;;;10.55;4.13;;;;;;;24.46;41.67;101442.88;4969256;28;20140;-82
2022/05/16 06:06:00;;;;;;;5.72;4.28;;;;;;;24.64;41.60;101460.44;4969514;28;20054;-81
2022/05/16 06:08:27;;;;;;;8.48;3.80;;;;;;;24.66;41.70;101455.63;4970755;28;20054;-81
2022/05/16 06:10:57;;;;;;;6.30;4.10;;;;;;;24.36;41.60;101404.44;4987855;28;20054;-82
2022/05/16 06:13:23;;;;;;;10.00;4.20;;;;;;;24.74;41.67;101450.81;4970108;28;20046;-81
2022/05/16 06:15:50;;;;;;;7.88;4.05;;;;;;;24.34;41.74;101373.97;4985262;28;20054;-81
2022/05/16 06:18:17;;;;;;;4.43;3.95;;;;;;;24.82;42.06;101452.50;4963902;28;20051;-82
2022/05/16 06:20:43;;;;;;;11.52;4.60;;;;;;;24.92;42.07;101463.75;4948853;28;20118;-82
2022/05/16 06:23:10;;;;;;;11.27;4.65;;;;;;;25.01;41.63;101466.25;4948346;28;20043;-82
2022/05/16 06:25:42;;;;;;;7.10;4.28;;;;;;;24.95;41.92;101463.34;4965680;28;20456;-82
2022/05/16 06:28:24;;;;;;;10.63;4.55;;;;;;;25.03;42.14;101465.00;4965265;28;20231;-81
2022/05/16 06:30:52;;;;;;;8.38;4.30;;;;;;;25.13;41.67;101467.28;4964679;28;20058;-82
2022/05/16 06:33:21;;;;;;;5.55;4.13;;;;;;;24.76;41.73;101404.47;4963033;28;20042;-82
2022/05/16 06:35:49;;;;;;;8.35;4.53;;;;;;;25.18;41.81;101455.81;4962932;28;20082;-82
2022/05/16 06:38:20;;;;;;;8.63;4.57;;;;;;;25.01;41.31;101407.34;4957835;28;20551;-82
2022/05/16 06:40:48;;;;;;;6.85;4.30;;;;;;;24.21;42.09;101303.44;4966668;28;20042;-82
2022/05/16 06:43:17;;;;;;;5.85;4.63;;;;;;;25.23;41.67;101459.56;4967824;28;20052;-82
2022/05/16 06:45:44;;;;;;;6.95;4.97;;;;;;;25.06;41.45;101414.84;4969030;28;20050;-83
2022/05/16 06:48:14;;;;;;;7.90;4.65;;;;;;;25.00;41.63;101393.97;4987671;28;20607;-82
2022/05/16 06:50:43;;;;;;;6.38;4.45;;;;;;;25.33;41.96;101468.09;4970573;28;20500;-83
2022/05/16 06:53:15;;;;;;;10.15;4.38;;;;;;;25.24;41.79;101431.31;4994551;28;20061;-82
2022/05/16 06:55:42;;;;;;;9.15;4.68;;;;;;;25.32;42.21;101450.13;4986420;28;20711;-82
2022/05/16 06:58:09;;;;;;;5.63;4.93;;;;;;;25.45;42.55;101462.00;4987576;28;20311;-81
2022/05/16 07:00:36;;;;;;;5.30;3.72;;;;;;;25.43;42.73;101459.50;4987685;28;20097;-82
2022/05/16 07:03:04;;;;;;;8.65;5.25;;;;;;;25.21;42.98;101429.03;4969943;28;20112;-81
2022/05/16 07:05:48;;;;;;;8.02;5.00;;;;;;;25.47;42.70;101465.34;4972123;28;20054;-81
2022/05/16 07:08:16;;;;;;;8.80;4.97;;;;;;;25.50;42.83;101475.78;4969702;28;20056;-82
2022/05/16 07:10:43;;;;;;;11.40;4.82;;;;;;;25.28;43.24;101435.28;4968849;28;20955;-81
2022/05/16 07:13:10;;;;;;;6.80;4.93;;;;;;;25.12;43.30;101409.41;4968790;28;20100;-82
2022/05/16 07:15:37;;;;;;;12.95;4.78;;;;;;;25.42;43.82;101459.72;4968392;28;20050;-81
2022/05/16 07:18:04;;;;;;;9.13;5.35;;;;;;;25.63;42.68;101458.59;4968330;28;20501;-80
2022/05/16 07:20:36;;;;;;;6.72;4.95;;;;;;;25.56;43.69;101464.06;4968974;28;20046;-80
2022/05/16 07:23:03;;;;;;;9.07;5.40;;;;;;;25.47;43.57;101438.16;4969926;28;20258;-80
2022/05/16 07:25:32;;;;;;;8.82;5.18;;;;;;;25.46;43.65;101436.47;4969950;28;20077;-82
2022/05/16 07:28:04;;;;;;;11.18;6.05;;;;;;;25.60;43.83;101457.13;4987082;28;20043;-80
2022/05/16 07:30:35;;;;;;;6.95;5.05;;;;;;;25.40;43.31;101421.06;4987075;28;20108;-82
2022/05/16 07:33:03;;;;;;;7.32;5.05;;;;;;;25.67;43.23;101448.97;4969471;28;20046;-80
2022/05/16 07:35:32;;;;;;;8.30;5.43;;;;;;;25.67;43.70;101465.28;4969816;28;20477;-82
2022/05/16 07:37:59;;;;;;;7.32;5.13;;;;;;;25.62;43.65;101452.31;4986856;28;20363;-82
2022/05/16 07:40:31;;;;;;;7.93;5.32;;;;;;;25.86;43.09;101488.84;4969836;28;20058;-82
2022/05/16 07:42:59;;;;;;;6.93;4.95;;;;;;;25.27;43.24;101392.88;4969884;28;20318;-81
2022/05/16 07:45:26;;;;;;;11.48;5.38;;;;;;;25.40;43.43;101429.22;4969896;28;20133;-81
2022/05/16 07:47:54;;;;;;;9.30;5.50;;;;;;;25.47;43.37;101443.59;4987016;28;20082;-81
2022/05/16 07:50:23;;;;;;;6.93;4.93;;;;;;;25.74;42.72;101471.50;4986947;28;20054;-80
2022/05/16 07:52:50;;;;;;;10.27;5.05;;;;;;;25.85;42.80;101494.47;4996393;28;20081;-81
2022/05/16 07:55:23;;;;;;;11.63;5.13;;;;;;;25.60;42.81;101438.09;5006313;28;20053;-81
2022/05/16 07:57:51;;;;;;;10.05;5.50;;;;;;;25.85;43.62;101503.47;4989005;28;20058;-81
2022/05/16 08:00:23;;;;;;;;;;;;;;;25.48;43.81;101447.97;5006692;28;20133;-82
2022/05/16 08:02:52;;;;;;;9.43;5.97;;;;;;;25.93;43.19;101494.28;5006491;28;19928;-81
2022/05/16 08:05:20;;;;;;;6.10;4.97;;;;;;;25.99;43.01;101496.09;4988372;28;20484;-81
2022/05/16 08:10:39;;;;;;;8.52;5.45;;;;;;;25.38;43.65;101403.06;5006460;28;20168;-82
2022/05/16 08:13:09;;;;;;;9.48;5.30;;;;;;;26.20;43.28;101514.84;5006122;28;20049;-82
2022/05/16 08:15:39;;;;;;;12.15;5.78;;;;;;;25.96;43.62;101488.38;4988582;28;20074;-82
2022/05/16 08:18:06;;;;;;;9.52;5.75;;;;;;;26.21;43.38;101511.06;4988450;28;20104;-80
2022/05/16 08:20:39;;;;;;;8.40;5.30;;;;;;;26.12;42.63;101498.78;4988677;28;20444;-82
2022/05/16 08:23:06;;;;;;;7.72;4.75;;;;;;;25.87;43.13;101447.00;4988169;28;20049;-81
2022/05/16 08:25:33;;;;;;;9.52;4.90;;;;;;;26.18;43.21;101491.63;4988706;28;20073;-82
2022/05/16 08:27:59;;;;;;;10.10;5.22;;;;;;;26.41;43.22;101512.84;4988567;28;20489;-82
2022/05/16 08:30:27;;;;;;;6.32;4.60;;;;;;;26.41;41.61;101518.28;4988371;28;20065;-80
2022/05/16 08:32:59;;;;;;;10.30;4.75;;;;;;;26.11;41.64;101464.44;5006696;28;20455;-79
2022/05/16 08:42:04;;;;;;;13.15;6.10;;;;;;;26.67;41.50;101522.72;5006757;28;20459;-80
2022/05/16 08:44:40;;;;;;;10.63;4.90;;;;;;;26.70;41.30;101516.84;4991336;28;20084;-85
2022/05/16 08:47:15;;;;;;;9.82;5.75;;;;;;;26.24;41.11;101417.28;4988004;28;20458;-82
2022/05/16 08:49:54;;;;;;;5.32;4.65;;;;;;;26.90;41.10;101521.31;4988433;28;20081;-82
2022/05/16 08:52:46;;;;;;;11.10;5.13;;;;;;;26.97;40.62;101517.47;4988158;28;20072;-83
2022/05/16 08:55:34;;;;;;;10.00;5.18;;;;;;;26.64;41.44;101474.97;4987978;28;20062;-82
2022/05/16 08:58:09;;;;;;;8.68;5.00;;;;;;;27.02;41.07;101505.88;5006261;28;20394;-81
2022/05/16 09:00:52;;;;;;;8.63;5.38;;;;;;;27.05;41.51;101506.25;4988147;28;20050;-82
2022/05/16 09:03:47;;;;;;;17.75;5.53;;;;;;;27.31;40.15;101515.28;4985335;28;20199;-81
2022/05/16 09:06:20;;;;;;;8.70;5.30;;;;;;;27.30;40.64;101513.59;4985041;28;20046;-83
2022/05/16 09:08:56;;;;;;;8.90;4.78;;;;;;;27.05;41.01;101468.13;4985083;28;20046;-82
2022/05/16 09:11:54;;;;;;;8.48;5.55;;;;;;;27.51;40.02;101515.06;4984894;28;20113;-83
2022/05/16 09:14:28;;;;;;;10.05;5.60;;;;;;;27.17;40.95;101475.56;4987762;28;20046;-83
2022/05/16 09:17:07;;;;;;;11.10;5.28;;;;;;;27.53;40.87;101520.28;4988283;28;20055;-83
2022/05/16 09:19:55;;;;;;;11.05;5.43;;;;;;;27.61;40.90;101514.53;4985709;28;20101;-81
2022/05/16 09:22:50;;;;;;;8.25;5.50;;;;;;;27.47;39.99;101503.75;4971406;28;20548;-82
2022/05/16 09:26:18;;;;;;;8.25;5.20;;;;;;;27.34;39.88;101470.38;4971499;28;20205;-82
2022/05/16 09:28:51;;;;;;;10.18;6.00;;;;;;;27.64;40.34;101486.78;4932468;29;20044;-82
2022/05/16 09:31:21;;;;;;;16.13;5.07;;;;;;;27.86;40.38;101507.09;4914103;29;20083;-82
2022/05/16 09:33:52;;;;;;;9.02;5.25;;;;;;;27.41;39.52;101405.69;4951615;28;20284;-82
2022/05/16 09:36:25;;;;;;;13.65;5.63;;;;;;;28.00;39.10;101479.66;4966112;28;20061;-82
2022/05/16 09:38:52;;;;;;;11.73;5.28;;;;;;;28.08;39.38;101485.59;4967070;28;20066;-82
2022/05/16 09:41:21;;;;;;;11.52;5.53;;;;;;;28.28;39.18;101485.31;4965504;28;20400;-82
2022/05/16 09:44:20;;;;;;;7.10;4.40;;;;;;;28.47;38.57;101477.06;4966848;28;20564;-82
2022/05/16 09:46:48;;;;;;;8.07;4.28;;;;;;;28.50;38.98;101480.19;4967203;28;20121;-82
2022/05/16 09:49:29;;;;;;;9.20;5.45;;;;;;;28.42;38.66;101469.56;4967306;28;20075;-83
2022/05/16 09:51:58;;;;;;;8.80;5.75;;;;;;;28.65;38.49;101471.53;4971320;28;20319;-82
2022/05/16 09:54:31;;;;;;;8.05;4.65;;;;;;;28.81;38.08;101480.91;4951661;29;20600;-81
2022/05/16 09:57:03;;;;;;;9.63;5.22;;;;;;;28.66;37.57;101423.19;4950128;29;20505;-81
2022/05/16 09:59:51;;;;;;;7.38;5.30;;;;;;;28.74;38.16;101448.28;4948700;29;20114;-83
2022/05/16 10:02:29;;;;;;;9.63;4.95;;;;;;;29.05;38.48;101467.25;4946597;28;20055;-83
2022/05/16 10:05:03;;;;;;;10.88;5.50;;;;;;;29.14;38.10;101447.56;4948624;28;20054;-81
2022/05/16 10:07:46;;;;;;;8.70;5.40;;;;;;;29.32;36.67;101464.88;4950776;28;20051;-82
2022/05/16 10:10:26;;;;;;;7.15;5.45;;;;;;;29.25;35.92;101410.34;4966921;28;20058;-82
2022/05/16 10:12:54;;;;;;;14.60;5.68;;;;;;;29.66;36.79;101471.34;4949168;28;20054;-82
2022/05/16 10:15:21;;;;;;;8.30;5.28;;;;;;;29.82;35.84;101465.13;4968942;28;20047;-82
2022/05/16 10:17:52;;;;;;;7.18;5.15;;;;;;;29.77;36.32;101450.53;4966874;28;20612;-82
2022/05/16 10:20:31;;;;;;;8.65;5.70;;;;;;;29.91;36.09;101459.28;4968187;28;20078;-82
2022/05/16 10:23:04;;;;;;;9.55;5.07;;;;;;;29.81;35.97;101451.69;4950529;28;20070;-81
2022/05/16 10:25:57;;;;;;;13.68;5.35;;;;;;;29.84;35.96;101423.00;4954836;28;20055;-82
2022/05/16 10:28:39;;;;;;;8.90;5.82;;;;;;;30.22;35.57;101439.59;4966488;28;20431;-83
2022/05/16 10:34:20;;;;;;;9.10;5.43;;;;;;;29.35;34.87;101242.91;4946016;28;20409;-82
2022/05/16 10:36:53;;;;;;;7.43;4.82;;;;;;;30.79;35.07;101441.34;4966473;28;20493;-83
2022/05/16 10:39:26;;;;;;;9.07;4.95;;;;;;;31.09;34.75;101445.63;4950927;28;20298;-81
2022/05/16 10:42:06;;;;;;;9.43;5.03;;;;;;;31.24;34.86;101448.59;4968697;28;20054;-82
2022/05/16 10:44:44;;;;;;;6.43;4.90;;;;;;;31.41;34.06;101447.72;4967825;28;20058;-82
2022/05/16 10:47:16;;;;;;;10.57;5.10;;;;;;;31.37;34.52;101430.09;4969074;28;20504;-82
2022/05/16 10:49:53;;;;;;;9.55;5.47;;;;;;;31.52;33.62;101430.31;4985804;28;20393;-81
2022/05/16 10:52:26;;;;;;;5.72;5.20;;;;;;;31.77;33.59;101445.38;4974680;28;20046;-83
2022/05/16 10:54:52;;;;;;;11.48;5.50;;;;;;;31.81;33.52;101428.16;4990801;28;20050;-83
2022/05/16 10:57:47;;;;;;;13.43;5.63;;;;;;;32.02;33.23;101442.94;5007306;28;20132;-83
2022/05/16 11:01:16;;;;;;;10.77;5.15;;;;;;;32.24;33.29;101425.56;4990661;28;20050;-83
2022/05/16 11:04:19;;;;;;;10.73;5.18;;;;;;;31.66;32.11;101308.06;4961368;28;20062;-84
2022/05/16 11:07:01;;;;;;;7.40;4.78;;;;;;;32.56;32.07;101436.56;4966072;28;20062;-84
2022/05/16 11:10:04;;;;;;;8.68;4.57;;;;;;;32.60;32.29;101434.09;4983587;28;20398;-84
2022/05/16 11:12:41;;;;;;;6.50;4.80;;;;;;;32.66;32.51;101427.56;4958966;28;20479;-83
2022/05/16 11:15:22;;;;;;;8.45;5.32;;;;;;;32.12;32.68;101294.75;4966267;28;20043;-83
2022/05/16 11:18:01;;;;;;;9.38;5.57;;;;;;;32.90;31.83;101404.06;4982916;28;20745;-82
2022/05/16 11:20:42;;;;;;;12.27;6.00;;;;;;;33.14;31.72;101414.69;4969660;28;20484;-83
2022/05/16 11:23:28;;;;;;;13.95;5.95;;;;;;;33.30;31.25;101412.78;4986340;28;20077;-84
2022/05/16 11:26:03;;;;;;;9.32;4.90;;;;;;;33.19;31.84;101395.44;4959526;28;20096;-82
2022/05/16 11:28:40;;;;;;;6.32;5.15;;;;;;;33.44;31.74;101407.63;4969779;28;20141;-83
2022/05/16 11:31:19;;;;;;;6.82;4.78;;;;;;;33.56;31.53;101395.31;4987128;28;20408;-82
2022/05/16 11:33:52;;;;;;;9.65;4.85;;;;;;;33.34;31.30;101348.69;4970003;28;20058;-83
2022/05/16 11:36:52;;;;;;;7.75;5.18;;;;;;;33.45;32.29;101341.31;4987030;28;20129;-82
2022/05/16 11:39:37;;;;;;;7.60;5.37;;;;;;;33.66;31.78;101350.44;4970039;28;20065;-82
2022/05/16 11:42:35;;;;;;;8.95;4.90;;;;;;;34.17;31.02;101382.72;4986187;28;20778;-82
2022/05/16 11:45:37;;;;;;;11.25;5.60;;;;;;;34.04;30.98;101340.84;4976007;28;20127;-82
2022/05/16 11:48:31;;;;;;;9.57;5.22;;;;;;;34.38;30.17;101375.28;4969545;28;20067;-82
2022/05/16 11:52:03;;;;;;;9.55;5.00;;;;;;;34.37;30.05;101371.69;4972219;28;20125;-82
2022/05/16 11:54:36;;;;;;;8.32;5.25;;;;;;;34.52;29.92;101346.03;4951029;28;20526;-82
2022/05/16 12:03:17;;;;;;;10.55;4.85;;;;;;;34.99;29.25;101349.50;4967906;28;20059;-82
2022/05/16 12:05:50;;;;;;;6.05;4.70;;;;;;;34.96;28.74;101301.22;4950126;28;20046;-82
2022/05/16 12:08:25;;;;;;;8.93;4.15;;;;;;;35.18;27.31;101300.03;4950037;28;20670;-82
2022/05/16 12:11:14;;;;;;;4.78;3.92;;;;;;;35.62;26.87;101346.16;4951093;28;20445;-80
2022/05/16 12:14:02;;;;;;;7.25;4.20;;;;;;;35.69;26.67;101341.13;4968341;28;20485;-82
2022/05/16 12:16:36;;;;;;;9.90;4.13;;;;;;;35.80;26.50;101328.88;4950358;28;20054;-81
2022/05/16 12:19:29;;;;;;;6.43;4.13;;;;;;;36.08;26.38;101326.44;4967306;28;20047;-83
2022/05/16 12:22:13;;;;;;;8.40;4.30;;;;;;;36.23;26.16;101318.03;4950278;28;20053;-83